KARV/ARV METAR and TAF weather

Enter ICAO airport designator
Station Type Date Time Source
KARV METAR 2020/04/06 17:15 UTC NOAA

KARV 061715Z AUTO 15004KT 10SM SCT065 SCT075 OVC110 11/00 A2999 RMK AO2 T01100000


Station Type Date Time Source
KARV Decoded METAR 2020/04/06 17:15 UTC NOAA

Minocqua/Woodruff, Lakeland Airport/Noble F. Lee Memorial Field, WI, United States (KARV) 45-56N 089-44W
Apr 06, 2020 - 01:15 PM EDT / 2020.04.06 1715 UTC
Wind: from the SSE (150 degrees) at 5 MPH (4 KT):0
Visibility: 10 mile(s):0
Sky conditions: overcast
Temperature: 51.8 F (11.0 C)
Dew Point: 32.0 F (0.0 C)
Relative Humidity: 46%
Pressure (altimeter): 29.99 in. Hg (1015 hPa)
ob: KARV 061715Z AUTO 15004KT 10SM SCT065 SCT075 OVC110 11/00 A2999 RMK AO2 T01100000
cycle: 17

Station Type Date Time Source
KARV TAF UTC NOAA

Error!

Example: see airport list